Time;durP1;ratioP1;P1;durP2;ratioP2;P2;SDS_P1;SDS_P2;PMS_P1;PMS_P2;Temp;Humidity;BMP_temperature;BMP_pressure;BME280_temperature;BME280_humidity;BME280_pressure;Samples;Min_cycle;Max_cycle;Signal;HPM_P1;HPM_P2
2023/11/07 00:00:07;;;;;;;16.08;13.45;;;;;;;25.66;38.55;99528.37;4483092;32;33550;-65
2023/11/07 00:02:35;;;;;;;17.92;13.48;;;;;;;25.64;38.47;99526.94;4482879;32;34074;-64
2023/11/07 00:05:03;;;;;;;20.52;13.82;;;;;;;25.63;38.60;99530.75;4481724;32;33125;-64
2023/11/07 00:07:31;;;;;;;18.15;13.35;;;;;;;25.59;38.43;99538.63;4483213;32;33650;-64
2023/11/07 00:09:59;;;;;;;20.83;13.52;;;;;;;25.59;38.42;99537.78;4482873;32;33738;-65
2023/11/07 00:12:26;;;;;;;16.67;13.43;;;;;;;25.57;38.32;99538.06;4482148;32;33736;-65
2023/11/07 00:14:54;;;;;;;21.80;12.65;;;;;;;25.55;38.33;99531.16;4484255;32;34415;-65
2023/11/07 00:17:22;;;;;;;16.95;12.27;;;;;;;25.54;38.25;99537.72;4484357;32;34579;-65
2023/11/07 00:19:49;;;;;;;23.08;12.90;;;;;;;25.51;38.32;99541.78;4484458;32;34798;-65
2023/11/07 00:22:17;;;;;;;19.80;11.40;;;;;;;25.50;38.18;99534.63;4484700;32;33984;-65
2023/11/07 00:24:45;;;;;;;19.92;11.82;;;;;;;25.49;38.09;99540.34;4483259;32;34729;-65
2023/11/07 00:27:13;;;;;;;19.00;11.35;;;;;;;25.48;37.84;99533.25;4484512;32;33228;-65
2023/11/07 00:29:40;;;;;;;18.55;11.35;;;;;;;25.46;37.74;99538.97;4484452;32;34678;-65
2023/11/07 00:32:08;;;;;;;17.12;11.27;;;;;;;25.44;37.57;99546.56;4484280;32;34626;-65
2023/11/07 00:34:36;;;;;;;18.67;11.48;;;;;;;25.42;37.52;99555.00;4484380;32;33836;-65
2023/11/07 00:37:03;;;;;;;20.33;11.07;;;;;;;25.42;37.36;99543.25;4484355;32;33551;-65
2023/11/07 00:39:31;;;;;;;20.88;10.75;;;;;;;25.39;37.28;99549.19;4484330;32;34653;-65
2023/11/07 00:41:58;;;;;;;17.35;9.88;;;;;;;25.38;37.31;99553.00;4483259;32;33689;-65
2023/11/07 00:44:26;;;;;;;22.98;11.35;;;;;;;25.36;37.34;99546.94;4484284;32;34120;-65
2023/11/07 00:46:54;;;;;;;20.12;11.88;;;;;;;25.34;37.39;99543.66;4482965;32;33443;-65
2023/11/07 00:49:21;;;;;;;21.30;10.80;;;;;;;25.33;37.35;99540.09;4484158;32;34402;-64
2023/11/07 00:51:49;;;;;;;17.60;10.38;;;;;;;25.32;37.33;99537.59;4484250;32;34831;-65
2023/11/07 00:54:17;;;;;;;18.67;10.68;;;;;;;25.31;37.35;99546.84;4484342;32;34069;-65
2023/11/07 00:56:44;;;;;;;20.05;10.25;;;;;;;25.29;37.42;99543.56;4483711;32;33554;-64
2023/11/07 00:59:12;;;;;;;17.62;10.10;;;;;;;25.27;37.45;99546.50;4483998;32;34126;-65
2023/11/07 01:01:40;;;;;;;19.62;10.95;;;;;;;25.27;37.50;99551.97;4484533;32;34245;-64
2023/11/07 01:04:08;;;;;;;20.50;10.82;;;;;;;25.25;37.59;99537.75;4484123;32;33044;-65
2023/11/07 01:06:35;;;;;;;16.73;10.15;;;;;;;25.24;37.63;99536.09;4483968;32;33818;-64
2023/11/07 01:09:04;;;;;;;15.48;10.27;;;;;;;25.23;37.55;99534.44;4484178;32;34119;-65
2023/11/07 01:11:31;;;;;;;16.62;9.93;;;;;;;25.22;37.66;99540.97;4484069;32;34136;-65
2023/11/07 01:13:59;;;;;;;18.65;10.73;;;;;;;25.20;37.74;99529.47;4483925;32;33760;-65
2023/11/07 01:16:27;;;;;;;15.68;9.48;;;;;;;25.19;37.72;99531.38;4484032;32;33361;-65
2023/11/07 01:18:55;;;;;;;14.07;8.80;;;;;;;25.18;37.70;99531.59;4484015;32;33834;-65
2023/11/07 01:21:23;;;;;;;14.27;10.38;;;;;;;25.17;37.72;99538.13;4483869;32;33788;-65
2023/11/07 01:23:51;;;;;;;15.68;9.88;;;;;;;25.16;37.58;99552.88;4483963;32;33660;-65
2023/11/07 01:26:19;;;;;;;14.52;9.20;;;;;;;25.14;37.48;99550.38;4483957;32;33606;-65
2023/11/07 01:28:47;;;;;;;12.98;8.93;;;;;;;25.13;37.48;99553.34;4483697;32;34701;-65
2023/11/07 01:31:14;;;;;;;15.77;9.68;;;;;;;25.12;37.42;99547.06;4482699;32;33883;-65
2023/11/07 01:33:42;;;;;;;15.20;10.07;;;;;;;25.11;37.45;99541.84;4483870;32;33429;-64
2023/11/07 01:36:10;;;;;;;11.60;7.50;;;;;;;25.10;37.38;99545.66;4483716;32;33698;-64
2023/11/07 01:38:38;;;;;;;13.52;8.85;;;;;;;25.09;37.32;99544.84;4483806;32;33996;-65
2023/11/07 01:41:05;;;;;;;13.68;9.85;;;;;;;25.08;37.18;99545.88;4483686;32;34075;-64
2023/11/07 01:43:33;;;;;;;13.75;8.70;;;;;;;25.07;37.02;99546.09;4483582;32;34503;-64
2023/11/07 01:46:02;;;;;;;12.82;8.02;;;;;;;25.04;36.96;99539.25;4483771;32;34004;-64
2023/11/07 01:48:30;;;;;;;11.80;8.13;;;;;;;25.04;37.07;99547.44;4469385;32;33986;-64
2023/11/07 01:50:58;;;;;;;13.68;8.65;;;;;;;25.04;36.88;99550.16;4482201;32;33803;-64
2023/11/07 01:53:26;;;;;;;13.05;7.87;;;;;;;25.01;36.83;99549.81;4483457;32;33777;-64
2023/11/07 01:55:54;;;;;;;12.82;7.80;;;;;;;25.00;36.76;99556.34;4482588;32;34333;-64
2023/11/07 01:58:21;;;;;;;10.60;7.10;;;;;;;24.98;36.69;99553.84;4483318;32;33968;-64
2023/11/07 02:00:53;;;;;;;10.90;7.37;;;;;;;24.97;36.59;99549.47;4485003;32;33634;-64
2023/11/07 02:03:24;;;;;;;9.95;7.55;;;;;;;24.96;36.77;99553.28;4484298;32;33833;-65
2023/11/07 02:05:52;;;;;;;10.18;7.05;;;;;;;24.95;36.80;99557.09;4485722;32;34152;-64
2023/11/07 02:08:24;;;;;;;10.98;7.43;;;;;;;24.94;36.70;99558.94;4485469;32;33856;-64
2023/11/07 02:10:52;;;;;;;11.43;7.28;;;;;;;24.92;36.77;99563.84;4485322;32;33938;-64
2023/11/07 02:13:20;;;;;;;11.40;7.45;;;;;;;24.92;36.66;99563.84;4485419;32;33750;-64
2023/11/07 02:15:47;;;;;;;11.10;7.45;;;;;;;24.90;36.71;99555.09;4485430;32;34363;-64
2023/11/07 02:18:15;;;;;;;10.40;7.10;;;;;;;24.89;36.72;99561.59;4485090;32;33928;-64
2023/11/07 02:20:45;;;;;;;10.93;6.32;;;;;;;24.88;36.69;99557.22;4485403;32;33917;-65
2023/11/07 02:23:29;;;;;;;9.52;6.68;;;;;;;24.86;36.83;99556.63;4485419;32;34480;-65
2023/11/07 02:25:57;;;;;;;10.90;6.70;;;;;;;24.89;36.72;99560.75;4485587;32;33618;-65
2023/11/07 02:28:24;;;;;;;10.40;7.68;;;;;;;24.86;36.68;99559.34;4485328;32;33630;-64
2023/11/07 02:30:52;;;;;;;12.05;7.37;;;;;;;24.85;36.70;99556.84;4485095;32;33928;-65
2023/11/07 02:33:21;;;;;;;9.68;6.53;;;;;;;24.84;36.68;99557.94;4484188;32;33984;-65
2023/11/07 02:35:49;;;;;;;11.15;7.28;;;;;;;24.83;36.66;99559.00;4485479;32;33645;-65
2023/11/07 02:38:19;;;;;;;9.43;6.90;;;;;;;24.82;36.66;99554.62;4484997;32;34542;-64
2023/11/07 02:40:49;;;;;;;10.57;6.57;;;;;;;24.82;36.62;99560.09;4485248;32;34182;-64
2023/11/07 02:43:16;;;;;;;9.70;7.05;;;;;;;24.80;36.72;99556.75;4485192;32;33993;-65
2023/11/07 02:45:44;;;;;;;9.32;6.57;;;;;;;24.79;36.52;99566.84;4484903;32;33381;-64
2023/11/07 02:48:12;;;;;;;10.23;6.45;;;;;;;24.79;36.48;99566.00;4485031;32;34779;-65
2023/11/07 02:50:40;;;;;;;9.18;6.12;;;;;;;24.77;36.49;99566.25;4485473;32;33883;-65
2023/11/07 02:53:07;;;;;;;8.63;6.12;;;;;;;24.76;36.49;99571.94;4483785;32;33799;-65
2023/11/07 02:55:35;;;;;;;10.73;6.25;;;;;;;24.74;36.54;99565.91;4485293;32;34145;-64
2023/11/07 02:58:03;;;;;;;10.27;6.50;;;;;;;24.74;36.52;99560.44;4483835;32;33921;-64
2023/11/07 03:00:32;;;;;;;8.45;5.82;;;;;;;24.72;36.45;99565.34;4485146;32;34107;-64
2023/11/07 03:03:00;;;;;;;8.68;6.05;;;;;;;24.71;36.42;99569.09;4485178;32;33352;-64
2023/11/07 03:05:27;;;;;;;9.13;5.65;;;;;;;24.71;36.38;99574.56;4485206;32;33258;-65
2023/11/07 03:07:56;;;;;;;8.05;5.12;;;;;;;24.69;36.21;99566.63;4484959;32;33539;-64
2023/11/07 03:10:25;;;;;;;6.78;5.15;;;;;;;24.67;36.23;99566.87;4485021;32;33632;-64
2023/11/07 03:12:53;;;;;;;7.32;5.57;;;;;;;24.67;36.24;99572.34;4485085;32;35373;-65
2023/11/07 03:15:20;;;;;;;8.88;5.30;;;;;;;24.66;36.21;99572.56;4485108;32;33528;-65
2023/11/07 03:17:48;;;;;;;10.02;5.95;;;;;;;24.66;36.09;99578.00;4484908;32;33970;-65
2023/11/07 03:20:16;;;;;;;9.65;5.53;;;;;;;24.63;36.05;99584.78;4484902;32;35042;-64
2023/11/07 03:22:44;;;;;;;9.02;6.22;;;;;;;24.63;36.06;99583.97;4484983;32;33922;-64
2023/11/07 03:25:11;;;;;;;8.82;5.80;;;;;;;24.63;36.02;99578.50;4484967;32;33429;-65
2023/11/07 03:27:39;;;;;;;9.43;6.37;;;;;;;24.60;35.96;99581.72;4484737;32;34604;-64
2023/11/07 03:30:07;;;;;;;9.23;6.07;;;;;;;24.60;35.89;99590.72;4484808;32;33982;-65
2023/11/07 03:32:35;;;;;;;10.15;5.78;;;;;;;24.59;35.92;99583.63;4485095;32;35030;-64
2023/11/07 03:35:04;;;;;;;8.23;5.30;;;;;;;24.57;36.04;99588.47;4484705;32;33543;-64
2023/11/07 03:37:32;;;;;;;8.43;5.60;;;;;;;24.57;36.36;99588.47;4484776;32;34088;-65
2023/11/07 03:40:00;;;;;;;7.43;5.15;;;;;;;24.56;36.38;99589.53;4484830;32;33813;-65
2023/11/07 03:42:28;;;;;;;9.00;5.28;;;;;;;24.57;36.22;99590.34;4484832;32;34647;-64
2023/11/07 03:44:55;;;;;;;8.32;4.75;;;;;;;24.55;35.96;99598.78;4484876;32;33139;-64
2023/11/07 03:47:23;;;;;;;7.45;4.90;;;;;;;24.55;35.98;99587.06;4484777;32;33547;-64
2023/11/07 03:49:51;;;;;;;7.10;4.80;;;;;;;24.54;35.65;99593.59;4484807;32;33454;-64
2023/11/07 03:52:19;;;;;;;7.15;5.03;;;;;;;24.53;35.62;99589.19;4484695;32;34667;-64
2023/11/07 03:54:47;;;;;;;7.75;4.65;;;;;;;24.52;35.49;99588.34;4484752;32;33284;-64
2023/11/07 03:57:15;;;;;;;6.32;3.90;;;;;;;24.51;35.39;99589.44;4484768;32;34566;-64
2023/11/07 03:59:45;;;;;;;7.60;4.50;;;;;;;24.50;35.42;99589.69;4484632;32;34759;-64
2023/11/07 04:02:13;;;;;;;7.15;4.70;;;;;;;24.49;35.42;99596.19;4484636;32;33818;-65
2023/11/07 04:04:41;;;;;;;6.65;4.70;;;;;;;24.49;35.41;99599.75;4483396;32;33858;-65
2023/11/07 04:07:08;;;;;;;6.78;4.40;;;;;;;24.47;35.38;99601.88;4484582;32;33965;-64
2023/11/07 04:09:36;;;;;;;6.25;4.50;;;;;;;24.45;35.37;99598.56;4484786;32;34484;-64
2023/11/07 04:12:05;;;;;;;8.00;4.75;;;;;;;24.45;35.27;99603.19;4484546;32;34750;-65
2023/11/07 04:14:33;;;;;;;7.22;4.30;;;;;;;24.43;35.29;99604.28;4484884;32;34192;-65
2023/11/07 04:17:04;;;;;;;5.55;3.87;;;;;;;24.42;35.24;99594.41;4484717;32;34125;-64
2023/11/07 04:19:33;;;;;;;7.00;4.12;;;;;;;24.42;35.24;99599.03;4483528;32;33405;-64
2023/11/07 04:22:04;;;;;;;6.37;4.20;;;;;;;24.40;35.15;99602.00;4483820;32;34808;-64
2023/11/07 04:24:31;;;;;;;8.18;4.32;;;;;;;24.40;35.29;99603.91;4484440;32;33578;-64
2023/11/07 04:26:59;;;;;;;10.18;4.32;;;;;;;24.40;35.15;99601.19;4484578;32;33751;-64
2023/11/07 04:29:26;;;;;;;5.30;3.67;;;;;;;24.39;35.13;99605.00;4484819;32;34983;-64
2023/11/07 04:31:54;;;;;;;6.18;4.03;;;;;;;24.38;35.07;99612.31;4484207;32;33901;-64
2023/11/07 04:34:22;;;;;;;7.90;4.28;;;;;;;24.38;35.01;99614.22;4484829;32;33542;-64
2023/11/07 04:36:53;;;;;;;6.30;4.00;;;;;;;24.36;34.88;99617.19;4484536;32;33970;-65
2023/11/07 04:39:21;;;;;;;9.82;4.50;;;;;;;24.35;34.82;99610.03;4484234;32;34107;-65
2023/11/07 04:41:48;;;;;;;6.80;3.87;;;;;;;24.34;34.72;99610.25;4484482;32;33819;-64
2023/11/07 04:44:16;;;;;;;6.20;3.78;;;;;;;24.32;34.69;99605.06;4484297;32;33624;-64
2023/11/07 04:46:44;;;;;;;6.20;4.05;;;;;;;24.32;34.74;99609.69;4484171;32;33994;-64
2023/11/07 04:49:13;;;;;;;6.00;3.97;;;;;;;24.32;34.67;99609.69;4484224;32;34135;-64
2023/11/07 04:51:41;;;;;;;7.27;3.90;;;;;;;24.30;34.71;99617.28;4484364;32;34452;-65
2023/11/07 04:54:09;;;;;;;6.28;3.72;;;;;;;24.30;34.78;99611.81;4484446;32;34300;-64
2023/11/07 04:56:37;;;;;;;6.15;3.80;;;;;;;24.28;34.79;99603.88;4483068;32;34767;-64
2023/11/07 04:59:04;;;;;;;5.53;3.78;;;;;;;24.27;34.78;99615.84;4484119;32;33910;-64
2023/11/07 05:01:32;;;;;;;6.03;3.53;;;;;;;24.27;34.74;99617.75;4484014;32;33917;-65
2023/11/07 05:04:00;;;;;;;4.97;3.25;;;;;;;24.27;34.78;99625.91;4484491;32;34420;-64
2023/11/07 05:06:28;;;;;;;5.00;3.15;;;;;;;24.26;34.67;99619.66;4484458;32;34052;-65
2023/11/07 05:08:55;;;;;;;5.62;3.37;;;;;;;24.26;34.56;99616.09;4484002;32;33978;-64
2023/11/07 05:11:23;;;;;;;6.00;3.70;;;;;;;24.24;34.49;99610.84;4484095;32;34755;-64
2023/11/07 05:13:50;;;;;;;5.55;3.87;;;;;;;24.25;34.52;99614.41;4484003;31;34343;-65
2023/11/07 05:16:19;;;;;;;6.22;3.80;;;;;;;24.23;34.48;99620.09;4484074;32;33450;-65
2023/11/07 05:18:47;;;;;;;7.62;4.00;;;;;;;24.22;34.48;99617.63;4484017;32;34729;-65
2023/11/07 05:21:16;;;;;;;5.93;3.97;;;;;;;24.22;34.51;99614.91;4483995;32;33474;-64
2023/11/07 05:23:43;;;;;;;5.97;4.15;;;;;;;24.21;34.48;99621.44;4484141;32;33328;-65
2023/11/07 05:26:11;;;;;;;7.28;4.18;;;;;;;24.18;34.71;99609.91;4483905;32;33729;-64
2023/11/07 05:28:39;;;;;;;5.50;3.58;;;;;;;24.17;34.55;99621.06;4482492;32;34003;-65
2023/11/07 05:31:06;;;;;;;5.87;3.75;;;;;;;24.17;34.77;99621.06;4482737;32;33617;-64
2023/11/07 05:33:36;;;;;;;6.95;4.25;;;;;;;24.16;34.45;99622.97;4483373;32;33324;-64
2023/11/07 05:36:05;;;;;;;5.62;3.83;;;;;;;24.17;34.46;99626.50;4483235;32;34558;-64
2023/11/07 05:38:33;;;;;;;7.00;3.53;;;;;;;24.16;34.47;99622.97;4483768;32;34835;-64
2023/11/07 05:41:01;;;;;;;6.22;4.05;;;;;;;24.15;34.55;99612.28;4483857;32;34478;-65
2023/11/07 05:43:29;;;;;;;7.18;4.40;;;;;;;24.15;34.53;99624.03;4483845;32;32663;-64
2023/11/07 05:45:57;;;;;;;6.32;3.65;;;;;;;24.13;34.44;99628.88;4483795;32;34065;-65
2023/11/07 05:48:24;;;;;;;6.68;4.07;;;;;;;24.13;34.59;99634.31;4483533;32;33864;-65
2023/11/07 05:50:52;;;;;;;6.43;4.07;;;;;;;24.13;34.40;99638.94;4483440;32;34260;-64
2023/11/07 05:53:20;;;;;;;9.30;3.97;;;;;;;24.13;34.40;99639.78;4483589;32;34036;-65
2023/11/07 05:55:48;;;;;;;7.75;4.60;;;;;;;24.12;34.35;99648.19;4483548;32;33974;-65
2023/11/07 05:58:15;;;;;;;7.20;4.45;;;;;;;24.11;34.20;99647.38;4482179;32;34911;-65
2023/11/07 06:00:44;;;;;;;7.50;4.18;;;;;;;24.10;34.17;99659.31;4483562;32;35035;-65
2023/11/07 06:03:13;;;;;;;6.78;4.43;;;;;;;24.09;34.20;99660.38;4483517;32;34484;-65
2023/11/07 06:05:45;;;;;;;7.62;4.72;;;;;;;24.09;34.24;99659.56;4483254;32;34534;-64
2023/11/07 06:08:13;;;;;;;8.95;5.28;;;;;;;24.10;34.24;99666.66;4476497;32;33552;-64
2023/11/07 06:10:40;;;;;;;9.88;5.05;;;;;;;24.07;34.54;99665.25;4483397;32;34351;-65
2023/11/07 06:13:08;;;;;;;8.73;4.68;;;;;;;24.06;34.37;99677.22;4483248;32;33087;-65
2023/11/07 06:15:36;;;;;;;8.63;4.85;;;;;;;24.06;34.33;99679.09;4483298;32;34404;-65
2023/11/07 06:18:06;;;;;;;8.30;5.15;;;;;;;24.06;34.41;99676.38;4483448;32;34007;-65
2023/11/07 06:20:34;;;;;;;8.95;5.07;;;;;;;24.06;34.49;99681.81;4469204;32;33532;-64
2023/11/07 06:23:01;;;;;;;8.68;5.20;;;;;;;24.04;34.44;99682.06;4483196;32;33150;-64
2023/11/07 06:25:29;;;;;;;9.73;4.50;;;;;;;24.03;34.61;99685.84;4468974;32;34341;-64
2023/11/07 06:27:57;;;;;;;10.10;4.97;;;;;;;24.02;34.75;99689.66;4483378;32;34557;-64
2023/11/07 06:30:29;;;;;;;11.32;5.35;;;;;;;24.02;34.81;99689.66;4482807;32;34669;-64
2023/11/07 06:32:57;;;;;;;6.90;4.68;;;;;;;24.02;34.86;99678.75;4482592;32;33520;-65
2023/11/07 06:35:26;;;;;;;8.93;5.07;;;;;;;24.01;34.85;99690.69;4483050;32;33990;-64
2023/11/07 06:37:54;;;;;;;8.35;4.78;;;;;;;24.02;34.69;99691.56;4482903;32;33833;-66
2023/11/07 06:40:23;;;;;;;8.73;5.20;;;;;;;24.02;34.74;99686.09;4482656;32;33282;-67
2023/11/07 06:43:00;;;;;;;7.87;4.40;;;;;;;24.02;34.63;99684.22;4482969;32;32991;-66
2023/11/07 06:45:28;;;;;;;7.65;4.68;;;;;;;24.00;34.92;99689.03;4482752;32;34664;-65
2023/11/07 06:47:59;;;;;;;8.00;4.37;;;;;;;24.00;35.00;99690.94;4484537;32;34103;-69
2023/11/07 06:50:27;;;;;;;7.37;4.62;;;;;;;23.98;35.03;99693.91;4483904;32;34694;-67
2023/11/07 06:52:55;;;;;;;7.50;5.00;;;;;;;23.98;35.29;99687.63;4485315;32;33287;-65
2023/11/07 06:55:25;;;;;;;8.18;5.57;;;;;;;23.97;35.42;99683.22;4485072;32;33482;-66
2023/11/07 06:57:54;;;;;;;8.45;5.30;;;;;;;23.96;35.52;99681.56;4485014;32;34805;-65
2023/11/07 07:00:26;;;;;;;7.47;5.05;;;;;;;23.95;35.72;99688.91;4484801;32;33681;-66
2023/11/07 07:02:55;;;;;;;7.57;5.05;;;;;;;23.95;35.88;99688.91;4485062;32;33485;-66
2023/11/07 07:05:25;;;;;;;8.45;5.37;;;;;;;23.94;35.90;99695.44;4484972;32;33785;-65
2023/11/07 07:07:54;;;;;;;9.52;5.53;;;;;;;23.95;35.92;99701.72;4484835;32;33683;-64
2023/11/07 07:10:22;;;;;;;9.07;6.10;;;;;;;23.93;35.95;99704.69;4484220;32;34783;-64
2023/11/07 07:12:50;;;;;;;9.40;5.37;;;;;;;23.93;36.01;99699.22;4485206;32;34164;-65
2023/11/07 07:15:18;;;;;;;10.40;6.05;;;;;;;23.92;36.07;99708.44;4484949;32;33815;-64
2023/11/07 07:17:46;;;;;;;14.52;6.00;;;;;;;23.91;36.26;99710.34;4485040;32;34490;-64
2023/11/07 07:20:14;;;;;;;10.65;5.53;;;;;;;23.93;36.33;99724.59;4484915;32;34537;-64
2023/11/07 07:22:42;;;;;;;12.10;5.35;;;;;;;23.93;36.47;99721.03;4484923;32;34282;-64
2023/11/07 07:25:16;;;;;;;13.00;5.68;;;;;;;23.90;36.60;99721.47;4483634;32;33784;-65
2023/11/07 07:27:47;;;;;;;10.70;5.37;;;;;;;23.91;36.62;99717.69;4484713;32;33946;-64
2023/11/07 07:30:20;;;;;;;13.57;4.65;;;;;;;23.91;36.67;99714.97;4484900;32;33436;-64
2023/11/07 07:32:51;;;;;;;13.62;5.47;;;;;;;23.90;36.70;99719.59;4482445;32;32997;-65
2023/11/07 07:35:23;;;;;;;13.85;5.37;;;;;;;23.89;36.77;99717.94;4482705;32;35234;-65
2023/11/07 07:37:51;;;;;;;10.00;6.25;;;;;;;23.90;36.80;99716.84;4482875;32;33519;-66
2023/11/07 07:40:29;;;;;;;15.13;5.72;;;;;;;23.89;36.87;99715.19;4482390;32;34151;-66
2023/11/07 07:43:08;;;;;;;9.65;5.30;;;;;;;23.89;36.84;99715.19;4482909;32;32939;-67
2023/11/07 07:45:39;;;;;;;8.25;5.20;;;;;;;23.90;36.89;99716.03;4483884;32;33944;-65
2023/11/07 07:48:07;;;;;;;8.97;4.80;;;;;;;23.89;36.93;99717.09;4484606;32;33633;-65
2023/11/07 07:50:35;;;;;;;7.78;5.45;;;;;;;23.89;36.85;99717.09;4484739;32;33886;-66
2023/11/07 07:53:06;;;;;;;8.90;5.57;;;;;;;23.88;36.89;99718.16;4484608;32;33979;-65
2023/11/07 07:55:34;;;;;;;10.38;4.87;;;;;;;23.87;36.88;99725.50;4484790;32;33868;-66
2023/11/07 07:58:06;;;;;;;8.07;5.00;;;;;;;23.87;36.89;99725.50;4483048;32;33886;-67
2023/11/07 08:00:37;;;;;;;7.70;4.50;;;;;;;23.87;36.94;99721.94;4484455;32;34567;-65
2023/11/07 08:03:09;;;;;;;9.32;4.65;;;;;;;23.86;36.95;99723.00;4484868;32;33359;-67
2023/11/07 08:05:38;;;;;;;12.02;5.50;;;;;;;23.87;36.98;99725.50;4484340;32;33817;-66
2023/11/07 08:08:09;;;;;;;7.97;4.37;;;;;;;23.86;37.04;99734.72;4484652;32;34097;-67
2023/11/07 08:10:38;;;;;;;7.80;4.70;;;;;;;23.86;37.06;99725.72;4483034;32;34570;-66
2023/11/07 08:13:06;;;;;;;9.07;5.12;;;;;;;23.85;37.10;99724.91;4482861;32;33280;-67
2023/11/07 08:15:36;;;;;;;11.23;5.25;;;;;;;23.85;37.09;99724.91;4484500;32;33771;-66
2023/11/07 08:18:06;;;;;;;11.05;5.72;;;;;;;23.85;37.22;99730.34;4484607;32;33858;-66
2023/11/07 08:20:37;;;;;;;12.18;5.80;;;;;;;23.85;37.25;99724.06;4470763;32;33860;-67
2023/11/07 08:23:06;;;;;;;;;;;;;;;23.84;37.15;99727.88;4484982;32;33091;-66
2023/11/07 08:25:33;;;;;;;10.07;5.25;;;;;;;23.93;37.03;99729.19;4482936;32;34949;-67
2023/11/07 08:28:06;;;;;;;8.75;5.10;;;;;;;23.85;37.23;99734.97;4483321;32;33920;-66
2023/11/07 08:30:38;;;;;;;9.88;5.68;;;;;;;23.83;37.33;99732.47;4483318;32;34773;-68
2023/11/07 08:33:07;;;;;;;11.43;5.15;;;;;;;23.82;37.59;99735.41;4470711;32;34524;-67
2023/11/07 08:35:36;;;;;;;11.70;5.60;;;;;;;23.81;37.46;99741.94;4484742;32;34552;-66
2023/11/07 08:38:04;;;;;;;11.32;5.55;;;;;;;23.79;37.38;99734.00;4484377;32;33919;-65
2023/11/07 08:40:34;;;;;;;8.40;4.78;;;;;;;23.79;37.41;99730.44;4484389;32;33858;-66
2023/11/07 08:43:03;;;;;;;7.93;4.78;;;;;;;23.78;37.34;99736.94;4484528;32;33126;-65
2023/11/07 08:45:32;;;;;;;8.85;4.80;;;;;;;23.77;37.38;99741.56;4484500;32;33904;-65
2023/11/07 08:48:02;;;;;;;11.38;5.40;;;;;;;23.76;37.48;99750.81;4483177;31;33794;-66
2023/11/07 08:50:32;;;;;;;9.23;4.70;;;;;;;23.76;37.44;99749.97;4483170;32;33569;-67
2023/11/07 08:53:05;;;;;;;9.02;4.68;;;;;;;23.77;37.55;99754.34;4476802;32;34213;-66
2023/11/07 08:55:33;;;;;;;9.60;4.93;;;;;;;23.75;37.63;99742.87;4467459;32;34090;-65
2023/11/07 08:58:03;;;;;;;7.87;4.03;;;;;;;23.75;37.61;99743.69;4467396;32;33063;-65
2023/11/07 09:00:32;;;;;;;10.10;4.85;;;;;;;23.75;37.57;99740.16;4468477;32;34524;-66
2023/11/07 09:03:00;;;;;;;8.73;4.93;;;;;;;23.75;37.54;99742.87;4468650;32;34314;-65
2023/11/07 09:05:28;;;;;;;10.13;4.80;;;;;;;23.77;37.53;99749.72;4468589;32;33935;-67
2023/11/07 09:07:56;;;;;;;7.80;4.22;;;;;;;23.74;37.61;99741.22;4468462;32;33884;-66
2023/11/07 09:10:25;;;;;;;9.20;4.43;;;;;;;23.72;37.54;99735.97;4468387;32;34069;-66
2023/11/07 09:12:52;;;;;;;9.43;4.62;;;;;;;23.73;37.40;99743.06;4467113;32;34172;-66
2023/11/07 09:15:20;;;;;;;8.90;4.37;;;;;;;23.72;37.25;99740.59;4468641;32;34657;-65
2023/11/07 09:17:48;;;;;;;8.05;3.90;;;;;;;23.71;37.39;99738.94;4468426;32;33901;-66
2023/11/07 09:20:16;;;;;;;8.15;4.30;;;;;;;23.71;37.31;99734.31;4467349;32;34010;-66
2023/11/07 09:22:44;;;;;;;9.60;3.35;;;;;;;23.70;37.27;99735.38;4468164;32;33538;-66
2023/11/07 09:25:12;;;;;;;8.13;3.50;;;;;;;23.69;37.26;99725.56;4454654;32;34089;-67
2023/11/07 09:27:40;;;;;;;7.57;3.83;;;;;;;23.69;37.25;99728.28;4466954;32;33919;-67
2023/11/07 09:30:11;;;;;;;8.85;3.50;;;;;;;23.69;37.09;99733.72;4476684;32;33978;-67
2023/11/07 09:32:41;;;;;;;7.35;4.18;;;;;;;23.66;37.16;99735.00;4483645;32;33459;-67
2023/11/07 09:35:10;;;;;;;9.02;3.78;;;;;;;23.68;37.24;99734.75;4482467;32;34563;-66
2023/11/07 09:37:40;;;;;;;7.28;3.75;;;;;;;23.68;37.32;99735.59;4470984;32;34690;-66
2023/11/07 09:40:19;;;;;;;7.05;2.80;;;;;;;23.67;37.38;99731.22;4483765;32;34128;-65
2023/11/07 09:42:52;;;;;;;7.72;3.55;;;;;;;23.67;37.50;99727.66;4483713;32;34301;-66
2023/11/07 09:45:19;;;;;;;10.15;4.10;;;;;;;23.67;37.56;99728.50;4483668;32;34303;-65
2023/11/07 09:47:49;;;;;;;7.35;3.33;;;;;;;23.67;37.58;99731.22;4483267;32;34018;-65
2023/11/07 09:50:19;;;;;;;9.23;3.87;;;;;;;23.66;37.63;99726.84;4469843;32;33845;-67
2023/11/07 09:52:48;;;;;;;6.22;3.62;;;;;;;23.68;37.70;99732.88;4482495;32;33241;-66
2023/11/07 09:55:16;;;;;;;6.15;3.12;;;;;;;23.68;37.71;99738.31;4482349;32;33428;-65
2023/11/07 09:57:52;;;;;;;8.38;3.78;;;;;;;23.70;37.69;99737.28;4482387;32;34831;-65
2023/11/07 10:00:37;;;;;;;6.70;3.40;;;;;;;23.70;37.69;99729.94;4482422;32;33460;-66
2023/11/07 10:03:06;;;;;;;7.53;3.40;;;;;;;23.70;37.73;99734.56;4483553;32;33305;-65
2023/11/07 10:05:37;;;;;;;6.45;3.17;;;;;;;23.70;37.81;99742.72;4483158;32;33859;-66
2023/11/07 10:08:04;;;;;;;6.85;3.47;;;;;;;23.70;37.83;99737.28;4481988;32;34108;-65
2023/11/07 10:10:34;;;;;;;7.53;3.62;;;;;;;23.70;37.85;99734.56;4482029;32;33594;-66
2023/11/07 10:13:11;;;;;;;9.47;3.60;;;;;;;23.70;37.92;99737.28;4483194;32;33521;-65
2023/11/07 10:15:39;;;;;;;10.00;3.65;;;;;;;23.72;37.52;99733.25;4483331;32;33878;-65
2023/11/07 10:18:11;;;;;;;7.30;3.42;;;;;;;23.67;37.40;99733.94;4483144;32;33517;-66
2023/11/07 10:20:50;;;;;;;6.95;3.50;;;;;;;23.64;37.25;99731.69;4483699;32;34312;-65
2023/11/07 10:23:18;;;;;;;6.93;3.33;;;;;;;23.63;37.28;99729.97;4485470;32;33579;-65
2023/11/07 10:25:49;;;;;;;7.47;2.97;;;;;;;23.58;37.20;99724.38;4485263;32;33838;-65
2023/11/07 10:28:18;;;;;;;9.18;3.20;;;;;;;23.57;37.46;99721.91;4485619;32;33888;-65
2023/11/07 10:30:48;;;;;;;6.90;3.30;;;;;;;23.57;37.67;99724.63;4483921;32;34628;-66
2023/11/07 10:33:27;;;;;;;6.60;3.10;;;;;;;23.56;37.79;99712.91;4485225;32;34116;-65
2023/11/07 10:36:00;;;;;;;7.50;3.30;;;;;;;23.57;37.91;99703.66;4485310;32;33438;-66
2023/11/07 10:38:30;;;;;;;8.82;3.55;;;;;;;23.58;37.92;99712.66;4484144;32;33753;-66
2023/11/07 10:40:58;;;;;;;6.80;3.28;;;;;;;23.58;37.92;99708.03;4483958;32;33812;-66
2023/11/07 10:43:54;;;;;;;6.00;3.03;;;;;;;23.58;37.94;99705.31;4483832;32;33276;-66
2023/11/07 10:46:22;;;;;;;6.22;2.95;;;;;;;23.58;37.92;99708.03;4485238;32;33989;-66
2023/11/07 10:48:51;;;;;;;7.47;3.37;;;;;;;23.58;37.94;99718.09;4484967;32;34857;-66
2023/11/07 10:51:19;;;;;;;7.75;3.03;;;;;;;23.58;37.99;99712.66;4471130;32;33892;-68
2023/11/07 10:53:52;;;;;;;7.15;3.15;;;;;;;23.59;37.94;99719.75;4484157;32;33022;-66
2023/11/07 10:56:20;;;;;;;9.85;3.72;;;;;;;23.59;37.89;99720.59;4484229;32;33800;-66
2023/11/07 10:58:58;;;;;;;7.40;3.35;;;;;;;23.59;37.65;99706.97;4471079;32;34345;-63
2023/11/07 11:01:32;;;;;;;9.10;2.85;;;;;;;23.58;37.78;99712.66;4484894;32;34061;-64
2023/11/07 11:04:00;;;;;;;6.53;2.75;;;;;;;23.56;37.93;99712.06;4471156;32;34257;-64
2023/11/07 11:06:29;;;;;;;5.93;2.83;;;;;;;23.56;38.00;99715.62;4485168;32;33337;-64
2023/11/07 11:08:57;;;;;;;6.55;2.97;;;;;;;23.57;38.00;99719.19;4483841;32;34726;-64
2023/11/07 11:11:25;;;;;;;6.60;3.17;;;;;;;23.57;38.00;99716.47;4484160;32;33192;-64
2023/11/07 11:13:55;;;;;;;5.95;3.50;;;;;;;23.58;38.03;99720.84;4471178;32;33607;-65
2023/11/07 11:16:23;;;;;;;6.35;3.00;;;;;;;23.59;38.01;99722.50;4485016;32;34697;-63
2023/11/07 11:18:56;;;;;;;8.48;2.92;;;;;;;23.58;38.03;99718.94;4483785;32;34063;-63
2023/11/07 11:21:31;;;;;;;7.45;3.08;;;;;;;23.59;38.09;99708.88;4483965;32;33715;-65
2023/11/07 11:24:18;;;;;;;6.68;2.65;;;;;;;23.59;38.11;99712.44;4483792;32;33578;-65
2023/11/07 11:26:48;;;;;;;7.25;2.90;;;;;;;23.62;38.08;99706.53;4470746;32;33834;-64
2023/11/07 11:29:26;;;;;;;7.35;2.80;;;;;;;23.60;38.11;99700.50;4471005;32;33865;-65
2023/11/07 11:31:54;;;;;;;6.68;2.60;;;;;;;23.61;38.12;99695.87;4484784;32;34226;-64
2023/11/07 11:34:25;;;;;;;6.57;2.78;;;;;;;23.61;38.14;99696.69;4485033;32;33579;-65
2023/11/07 11:36:59;;;;;;;4.65;2.50;;;;;;;23.60;38.15;99697.78;4484955;32;34689;-65